sensor_id;sensor_type;location;lat;lon;timestamp;pressure;altitude;pressure_sealevel;temperature
69545;BMP180;56766;52.260;20.746;2024-02-26T00:01:58;99522.20;;;3.30
69545;BMP180;56766;52.260;20.746;2024-02-26T00:04:25;99522.80;;;3.20
69545;BMP180;56766;52.260;20.746;2024-02-26T00:06:52;99526.20;;;3.20
69545;BMP180;56766;52.260;20.746;2024-02-26T00:09:20;99524.20;;;3.20
69545;BMP180;56766;52.260;20.746;2024-02-26T00:11:47;99517.40;;;3.10
69545;BMP180;56766;52.260;20.746;2024-02-26T00:14:14;99517.00;;;3.10
69545;BMP180;56766;52.260;20.746;2024-02-26T00:16:40;99513.40;;;3.00
69545;BMP180;56766;52.260;20.746;2024-02-26T00:19:08;99510.40;;;3.00
69545;BMP180;56766;52.260;20.746;2024-02-26T00:21:34;99508.80;;;2.90
69545;BMP180;56766;52.260;20.746;2024-02-26T00:24:01;99509.60;;;2.90
69545;BMP180;56766;52.260;20.746;2024-02-26T00:26:28;99513.00;;;2.80
69545;BMP180;56766;52.260;20.746;2024-02-26T00:28:54;99509.60;;;2.80
69545;BMP180;56766;52.260;20.746;2024-02-26T00:31:21;99508.00;;;2.72
69545;BMP180;56766;52.260;20.746;2024-02-26T00:33:48;99497.40;;;2.70
69545;BMP180;56766;52.260;20.746;2024-02-26T00:36:14;99497.20;;;2.60
69545;BMP180;56766;52.260;20.746;2024-02-26T00:38:41;99503.20;;;2.60
69545;BMP180;56766;52.260;20.746;2024-02-26T00:41:09;99502.60;;;2.50
69545;BMP180;56766;52.260;20.746;2024-02-26T00:43:36;99497.80;;;2.50
69545;BMP180;56766;52.260;20.746;2024-02-26T00:46:05;99489.00;;;2.40
69545;BMP180;56766;52.260;20.746;2024-02-26T00:48:32;99484.80;;;2.40
69545;BMP180;56766;52.260;20.746;2024-02-26T00:50:58;99486.60;;;2.30
69545;BMP180;56766;52.260;20.746;2024-02-26T00:53:25;99483.20;;;2.30
69545;BMP180;56766;52.260;20.746;2024-02-26T00:55:52;99482.80;;;2.30
69545;BMP180;56766;52.260;20.746;2024-02-26T00:58:18;99485.60;;;2.30
69545;BMP180;56766;52.260;20.746;2024-02-26T01:00:45;99484.20;;;2.20
69545;BMP180;56766;52.260;20.746;2024-02-26T01:03:12;99482.40;;;2.20
69545;BMP180;56766;52.260;20.746;2024-02-26T01:05:39;99487.20;;;2.20
69545;BMP180;56766;52.260;20.746;2024-02-26T01:08:05;99494.20;;;2.20
69545;BMP180;56766;52.260;20.746;2024-02-26T01:10:32;99502.20;;;2.10
69545;BMP180;56766;52.260;20.746;2024-02-26T01:13:01;99502.20;;;2.10
69545;BMP180;56766;52.260;20.746;2024-02-26T01:15:28;99494.80;;;2.00
69545;BMP180;56766;52.260;20.746;2024-02-26T01:17:55;99492.40;;;2.00
69545;BMP180;56766;52.260;20.746;2024-02-26T01:20:21;99496.20;;;2.10
69545;BMP180;56766;52.260;20.746;2024-02-26T01:22:48;99499.00;;;2.10
69545;BMP180;56766;52.260;20.746;2024-02-26T01:25:15;99496.40;;;2.10
69545;BMP180;56766;52.260;20.746;2024-02-26T01:27:42;99489.80;;;2.20
69545;BMP180;56766;52.260;20.746;2024-02-26T01:30:11;99489.40;;;2.30
69545;BMP180;56766;52.260;20.746;2024-02-26T01:32:37;99495.00;;;2.30
69545;BMP180;56766;52.260;20.746;2024-02-26T01:35:04;99495.80;;;2.30
69545;BMP180;56766;52.260;20.746;2024-02-26T01:37:34;99492.60;;;2.30
69545;BMP180;56766;52.260;20.746;2024-02-26T01:40:01;99502.60;;;2.30
69545;BMP180;56766;52.260;20.746;2024-02-26T01:42:30;99500.40;;;2.30
69545;BMP180;56766;52.260;20.746;2024-02-26T01:44:59;99501.40;;;2.30
69545;BMP180;56766;52.260;20.746;2024-02-26T01:47:28;99499.20;;;2.40
69545;BMP180;56766;52.260;20.746;2024-02-26T01:49:55;99494.80;;;2.40
69545;BMP180;56766;52.260;20.746;2024-02-26T01:52:22;99500.20;;;2.40
69545;BMP180;56766;52.260;20.746;2024-02-26T01:54:50;99497.80;;;2.40
69545;BMP180;56766;52.260;20.746;2024-02-26T01:57:18;99503.80;;;2.40
69545;BMP180;56766;52.260;20.746;2024-02-26T01:59:45;99501.80;;;2.32
69545;BMP180;56766;52.260;20.746;2024-02-26T02:02:14;99504.80;;;2.30
69545;BMP180;56766;52.260;20.746;2024-02-26T02:04:41;99507.00;;;2.30
69545;BMP180;56766;52.260;20.746;2024-02-26T02:07:08;99500.20;;;2.30
69545;BMP180;56766;52.260;20.746;2024-02-26T02:09:36;99501.40;;;2.26
69545;BMP180;56766;52.260;20.746;2024-02-26T02:12:04;99504.20;;;2.22
69545;BMP180;56766;52.260;20.746;2024-02-26T02:14:31;99502.00;;;2.20
69545;BMP180;56766;52.260;20.746;2024-02-26T02:16:57;99503.20;;;2.20
69545;BMP180;56766;52.260;20.746;2024-02-26T02:19:24;99501.00;;;2.20
69545;BMP180;56766;52.260;20.746;2024-02-26T02:21:52;99501.00;;;2.20
69545;BMP180;56766;52.260;20.746;2024-02-26T02:24:19;99499.60;;;2.20
69545;BMP180;56766;52.260;20.746;2024-02-26T02:26:46;99502.40;;;2.20
69545;BMP180;56766;52.260;20.746;2024-02-26T02:29:15;99504.40;;;2.20
69545;BMP180;56766;52.260;20.746;2024-02-26T02:31:42;99504.60;;;2.10
69545;BMP180;56766;52.260;20.746;2024-02-26T02:34:11;99496.40;;;2.00
69545;BMP180;56766;52.260;20.746;2024-02-26T02:36:54;99496.40;;;2.00
69545;BMP180;56766;52.260;20.746;2024-02-26T02:39:21;99496.80;;;1.90
69545;BMP180;56766;52.260;20.746;2024-02-26T02:41:48;99499.20;;;1.90
69545;BMP180;56766;52.260;20.746;2024-02-26T02:44:15;99503.60;;;1.84
69545;BMP180;56766;52.260;20.746;2024-02-26T02:46:42;99501.00;;;1.80
69545;BMP180;56766;52.260;20.746;2024-02-26T02:49:10;99500.80;;;1.80
69545;BMP180;56766;52.260;20.746;2024-02-26T02:51:37;99496.40;;;1.80
69545;BMP180;56766;52.260;20.746;2024-02-26T02:54:05;99503.80;;;1.80
69545;BMP180;56766;52.260;20.746;2024-02-26T02:56:32;99497.80;;;1.70
69545;BMP180;56766;52.260;20.746;2024-02-26T02:58:58;99502.80;;;1.70
69545;BMP180;56766;52.260;20.746;2024-02-26T03:01:25;99505.40;;;1.60
69545;BMP180;56766;52.260;20.746;2024-02-26T03:03:52;99518.60;;;1.60
69545;BMP180;56766;52.260;20.746;2024-02-26T03:06:19;99525.60;;;1.60
69545;BMP180;56766;52.260;20.746;2024-02-26T03:08:47;99526.80;;;1.50
69545;BMP180;56766;52.260;20.746;2024-02-26T03:11:15;99527.80;;;1.50
69545;BMP180;56766;52.260;20.746;2024-02-26T03:13:42;99529.00;;;1.50
69545;BMP180;56766;52.260;20.746;2024-02-26T03:16:09;99527.80;;;1.50
69545;BMP180;56766;52.260;20.746;2024-02-26T03:18:35;99525.20;;;1.50
69545;BMP180;56766;52.260;20.746;2024-02-26T03:21:02;99520.20;;;1.50
69545;BMP180;56766;52.260;20.746;2024-02-26T03:23:29;99518.20;;;1.40
69545;BMP180;56766;52.260;20.746;2024-02-26T03:25:58;99513.80;;;1.34
69545;BMP180;56766;52.260;20.746;2024-02-26T03:28:25;99516.40;;;1.30
69545;BMP180;56766;52.260;20.746;2024-02-26T03:30:52;99518.40;;;1.28
69545;BMP180;56766;52.260;20.746;2024-02-26T03:33:18;99520.20;;;1.20
69545;BMP180;56766;52.260;20.746;2024-02-26T03:35:45;99523.40;;;1.20
69545;BMP180;56766;52.260;20.746;2024-02-26T03:38:13;99527.00;;;1.20
69545;BMP180;56766;52.260;20.746;2024-02-26T03:40:39;99525.80;;;1.20
69545;BMP180;56766;52.260;20.746;2024-02-26T03:43:06;99534.40;;;1.20
69545;BMP180;56766;52.260;20.746;2024-02-26T03:45:34;99530.80;;;1.20
69545;BMP180;56766;52.260;20.746;2024-02-26T03:48:00;99524.00;;;1.28
69545;BMP180;56766;52.260;20.746;2024-02-26T03:50:27;99519.40;;;1.30
69545;BMP180;56766;52.260;20.746;2024-02-26T03:52:53;99521.80;;;1.40
69545;BMP180;56766;52.260;20.746;2024-02-26T03:55:22;99527.20;;;1.40
69545;BMP180;56766;52.260;20.746;2024-02-26T03:57:52;99523.40;;;1.38
69545;BMP180;56766;52.260;20.746;2024-02-26T04:00:19;99525.80;;;1.30
69545;BMP180;56766;52.260;20.746;2024-02-26T04:02:47;99532.20;;;1.30
69545;BMP180;56766;52.260;20.746;2024-02-26T04:05:14;99532.00;;;1.30
69545;BMP180;56766;52.260;20.746;2024-02-26T04:07:41;99530.80;;;1.30
69545;BMP180;56766;52.260;20.746;2024-02-26T04:10:12;99527.40;;;1.22
69545;BMP180;56766;52.260;20.746;2024-02-26T04:12:41;99526.40;;;1.20
69545;BMP180;56766;52.260;20.746;2024-02-26T04:15:09;99530.20;;;1.20
69545;BMP180;56766;52.260;20.746;2024-02-26T04:17:38;99527.20;;;1.20
69545;BMP180;56766;52.260;20.746;2024-02-26T04:20:06;99516.80;;;1.12
69545;BMP180;56766;52.260;20.746;2024-02-26T04:22:33;99523.60;;;1.20
69545;BMP180;56766;52.260;20.746;2024-02-26T04:25:00;99524.40;;;1.18
69545;BMP180;56766;52.260;20.746;2024-02-26T04:27:27;99531.40;;;1.10
69545;BMP180;56766;52.260;20.746;2024-02-26T04:29:54;99533.00;;;1.10
69545;BMP180;56766;52.260;20.746;2024-02-26T04:32:21;99534.20;;;1.10
69545;BMP180;56766;52.260;20.746;2024-02-26T04:34:48;99537.80;;;1.10
69545;BMP180;56766;52.260;20.746;2024-02-26T04:37:14;99537.40;;;1.10
69545;BMP180;56766;52.260;20.746;2024-02-26T04:39:41;99534.00;;;1.10
69545;BMP180;56766;52.260;20.746;2024-02-26T04:42:08;99530.80;;;1.08
69545;BMP180;56766;52.260;20.746;2024-02-26T04:44:34;99527.00;;;1.00
69545;BMP180;56766;52.260;20.746;2024-02-26T04:47:01;99531.40;;;1.00
69545;BMP180;56766;52.260;20.746;2024-02-26T04:49:28;99531.00;;;1.00
69545;BMP180;56766;52.260;20.746;2024-02-26T04:51:55;99530.80;;;1.00
69545;BMP180;56766;52.260;20.746;2024-02-26T04:54:21;99530.40;;;0.90
69545;BMP180;56766;52.260;20.746;2024-02-26T04:56:48;99532.20;;;0.90
69545;BMP180;56766;52.260;20.746;2024-02-26T04:59:15;99524.00;;;0.90
69545;BMP180;56766;52.260;20.746;2024-02-26T05:01:41;99530.80;;;0.90
69545;BMP180;56766;52.260;20.746;2024-02-26T05:04:08;99528.40;;;0.90
69545;BMP180;56766;52.260;20.746;2024-02-26T05:06:36;99528.60;;;0.92
69545;BMP180;56766;52.260;20.746;2024-02-26T05:09:04;99531.60;;;1.00
69545;BMP180;56766;52.260;20.746;2024-02-26T05:11:30;99531.20;;;1.10
69545;BMP180;56766;52.260;20.746;2024-02-26T05:13:57;99535.20;;;1.12
69545;BMP180;56766;52.260;20.746;2024-02-26T05:16:24;99537.40;;;1.20
69545;BMP180;56766;52.260;20.746;2024-02-26T05:18:53;99528.80;;;1.24
69545;BMP180;56766;52.260;20.746;2024-02-26T05:21:20;99531.40;;;1.30
69545;BMP180;56766;52.260;20.746;2024-02-26T05:23:46;99539.40;;;1.40
69545;BMP180;56766;52.260;20.746;2024-02-26T05:26:22;99535.60;;;1.40
69545;BMP180;56766;52.260;20.746;2024-02-26T05:28:50;99550.60;;;1.50
69545;BMP180;56766;52.260;20.746;2024-02-26T05:31:17;99541.00;;;1.50
69545;BMP180;56766;52.260;20.746;2024-02-26T05:33:45;99547.00;;;1.60
69545;BMP180;56766;52.260;20.746;2024-02-26T05:36:21;99548.00;;;1.70
69545;BMP180;56766;52.260;20.746;2024-02-26T05:38:49;99551.00;;;1.80
69545;BMP180;56766;52.260;20.746;2024-02-26T05:41:17;99554.80;;;1.88
69545;BMP180;56766;52.260;20.746;2024-02-26T05:43:49;99558.60;;;1.98
69545;BMP180;56766;52.260;20.746;2024-02-26T05:46:21;99555.20;;;2.10
69545;BMP180;56766;52.260;20.746;2024-02-26T05:48:51;99562.40;;;2.20
69545;BMP180;56766;52.260;20.746;2024-02-26T05:51:18;99563.60;;;2.32
69545;BMP180;56766;52.260;20.746;2024-02-26T05:53:45;99565.20;;;2.46
69545;BMP180;56766;52.260;20.746;2024-02-26T05:56:14;99566.20;;;2.54
69545;BMP180;56766;52.260;20.746;2024-02-26T05:58:40;99569.20;;;2.70
69545;BMP180;56766;52.260;20.746;2024-02-26T06:01:07;99574.00;;;2.80
69545;BMP180;56766;52.260;20.746;2024-02-26T06:03:33;99570.40;;;2.88
69545;BMP180;56766;52.260;20.746;2024-02-26T06:06:00;99568.80;;;2.90
69545;BMP180;56766;52.260;20.746;2024-02-26T06:08:27;99575.60;;;3.00
69545;BMP180;56766;52.260;20.746;2024-02-26T06:10:54;99572.40;;;3.02
69545;BMP180;56766;52.260;20.746;2024-02-26T06:13:20;99574.00;;;3.10
69545;BMP180;56766;52.260;20.746;2024-02-26T06:15:47;99572.00;;;3.20
69545;BMP180;56766;52.260;20.746;2024-02-26T06:18:14;99572.40;;;3.30
69545;BMP180;56766;52.260;20.746;2024-02-26T06:20:41;99582.20;;;3.34
69545;BMP180;56766;52.260;20.746;2024-02-26T06:23:07;99573.60;;;3.40
69545;BMP180;56766;52.260;20.746;2024-02-26T06:25:34;99578.60;;;3.50
69545;BMP180;56766;52.260;20.746;2024-02-26T06:28:01;99578.60;;;3.56
69545;BMP180;56766;52.260;20.746;2024-02-26T06:30:27;99584.20;;;3.64
69545;BMP180;56766;52.260;20.746;2024-02-26T06:32:54;99588.60;;;3.78
69545;BMP180;56766;52.260;20.746;2024-02-26T06:35:21;99591.60;;;3.90
69545;BMP180;56766;52.260;20.746;2024-02-26T06:37:48;99592.80;;;4.00
69545;BMP180;56766;52.260;20.746;2024-02-26T06:40:17;99592.20;;;4.10
69545;BMP180;56766;52.260;20.746;2024-02-26T06:42:43;99597.00;;;4.20
69545;BMP180;56766;52.260;20.746;2024-02-26T06:45:10;99593.60;;;4.40
69545;BMP180;56766;52.260;20.746;2024-02-26T06:47:37;99597.80;;;4.50
69545;BMP180;56766;52.260;20.746;2024-02-26T06:50:04;99602.80;;;4.70
69545;BMP180;56766;52.260;20.746;2024-02-26T06:52:31;99600.60;;;4.86
69545;BMP180;56766;52.260;20.746;2024-02-26T06:54:57;99595.80;;;5.00
69545;BMP180;56766;52.260;20.746;2024-02-26T06:57:24;99599.40;;;5.26
69545;BMP180;56766;52.260;20.746;2024-02-26T06:59:50;99600.20;;;5.50
69545;BMP180;56766;52.260;20.746;2024-02-26T07:02:17;99600.40;;;5.78
69545;BMP180;56766;52.260;20.746;2024-02-26T07:04:44;99603.20;;;6.00
69545;BMP180;56766;52.260;20.746;2024-02-26T07:07:11;99607.80;;;6.20
69545;BMP180;56766;52.260;20.746;2024-02-26T07:09:38;99604.00;;;6.32
69545;BMP180;56766;52.260;20.746;2024-02-26T07:12:04;99605.40;;;6.40
69545;BMP180;56766;52.260;20.746;2024-02-26T07:14:31;99601.40;;;6.40
69545;BMP180;56766;52.260;20.746;2024-02-26T07:16:59;99611.60;;;6.40
69545;BMP180;56766;52.260;20.746;2024-02-26T07:19:26;99609.40;;;6.50
69545;BMP180;56766;52.260;20.746;2024-02-26T07:21:52;99604.60;;;6.52
69545;BMP180;56766;52.260;20.746;2024-02-26T07:24:19;99612.80;;;6.60
69545;BMP180;56766;52.260;20.746;2024-02-26T07:26:46;99615.60;;;6.70
69545;BMP180;56766;52.260;20.746;2024-02-26T07:29:12;99617.20;;;6.80
69545;BMP180;56766;52.260;20.746;2024-02-26T07:31:39;99619.20;;;6.88
69545;BMP180;56766;52.260;20.746;2024-02-26T07:34:06;99616.00;;;7.00
69545;BMP180;56766;52.260;20.746;2024-02-26T07:36:33;99612.60;;;7.20
69545;BMP180;56766;52.260;20.746;2024-02-26T07:38:59;99609.60;;;7.38
69545;BMP180;56766;52.260;20.746;2024-02-26T07:41:27;99618.40;;;7.60
69545;BMP180;56766;52.260;20.746;2024-02-26T07:43:54;99621.20;;;7.78
69545;BMP180;56766;52.260;20.746;2024-02-26T07:46:21;99621.80;;;7.90
69545;BMP180;56766;52.260;20.746;2024-02-26T07:48:47;99625.60;;;8.10
69545;BMP180;56766;52.260;20.746;2024-02-26T07:51:14;99627.20;;;8.18
69545;BMP180;56766;52.260;20.746;2024-02-26T07:53:41;99627.00;;;8.20
69545;BMP180;56766;52.260;20.746;2024-02-26T07:56:09;99623.80;;;8.40
69545;BMP180;56766;52.260;20.746;2024-02-26T07:58:36;99630.20;;;8.58
69545;BMP180;56766;52.260;20.746;2024-02-26T08:01:02;99634.00;;;8.84
69545;BMP180;56766;52.260;20.746;2024-02-26T08:03:29;99636.80;;;9.00
69545;BMP180;56766;52.260;20.746;2024-02-26T08:05:56;99637.20;;;9.10
69545;BMP180;56766;52.260;20.746;2024-02-26T08:08:23;99639.20;;;9.20
69545;BMP180;56766;52.260;20.746;2024-02-26T08:10:49;99646.00;;;9.22
69545;BMP180;56766;52.260;20.746;2024-02-26T08:13:16;99641.80;;;9.20
69545;BMP180;56766;52.260;20.746;2024-02-26T08:15:43;99647.80;;;9.10
69545;BMP180;56766;52.260;20.746;2024-02-26T08:18:09;99645.80;;;9.10
69545;BMP180;56766;52.260;20.746;2024-02-26T08:20:36;99641.20;;;9.10
69545;BMP180;56766;52.260;20.746;2024-02-26T08:23:04;99642.20;;;9.10
69545;BMP180;56766;52.260;20.746;2024-02-26T08:25:30;99634.60;;;9.20
69545;BMP180;56766;52.260;20.746;2024-02-26T08:27:57;99645.60;;;9.50
69545;BMP180;56766;52.260;20.746;2024-02-26T08:30:24;99642.60;;;9.80
69545;BMP180;56766;52.260;20.746;2024-02-26T08:32:50;99646.60;;;10.18
69545;BMP180;56766;52.260;20.746;2024-02-26T08:35:17;99647.20;;;10.46
69545;BMP180;56766;52.260;20.746;2024-02-26T08:37:46;99645.40;;;10.70
69545;BMP180;56766;52.260;20.746;2024-02-26T08:40:14;99644.40;;;10.90
69545;BMP180;56766;52.260;20.746;2024-02-26T08:42:41;99641.20;;;11.08
69545;BMP180;56766;52.260;20.746;2024-02-26T08:45:08;99645.20;;;11.20
69545;BMP180;56766;52.260;20.746;2024-02-26T08:47:35;99642.40;;;11.30
69545;BMP180;56766;52.260;20.746;2024-02-26T08:50:05;99643.40;;;11.40
69545;BMP180;56766;52.260;20.746;2024-02-26T08:52:33;99645.60;;;11.50
69545;BMP180;56766;52.260;20.746;2024-02-26T08:55:03;99647.60;;;11.60
69545;BMP180;56766;52.260;20.746;2024-02-26T08:57:31;99646.60;;;11.70
69545;BMP180;56766;52.260;20.746;2024-02-26T09:00:01;99645.20;;;11.80
69545;BMP180;56766;52.260;20.746;2024-02-26T09:02:28;99642.00;;;11.90
69545;BMP180;56766;52.260;20.746;2024-02-26T09:04:55;99648.00;;;12.00
69545;BMP180;56766;52.260;20.746;2024-02-26T09:07:22;99647.80;;;12.08
69545;BMP180;56766;52.260;20.746;2024-02-26T09:09:48;99645.80;;;12.10
69545;BMP180;56766;52.260;20.746;2024-02-26T09:12:15;99644.00;;;12.20
69545;BMP180;56766;52.260;20.746;2024-02-26T09:14:42;99637.20;;;12.30
69545;BMP180;56766;52.260;20.746;2024-02-26T09:17:08;99641.60;;;12.40
69545;BMP180;56766;52.260;20.746;2024-02-26T09:19:35;99637.60;;;12.50
69545;BMP180;56766;52.260;20.746;2024-02-26T09:22:02;99647.20;;;12.62
69545;BMP180;56766;52.260;20.746;2024-02-26T09:24:29;99646.00;;;12.70
69545;BMP180;56766;52.260;20.746;2024-02-26T09:26:55;99647.80;;;12.70
69545;BMP180;56766;52.260;20.746;2024-02-26T09:29:22;99642.40;;;12.80
69545;BMP180;56766;52.260;20.746;2024-02-26T09:31:49;99641.60;;;12.90
69545;BMP180;56766;52.260;20.746;2024-02-26T09:34:16;99645.00;;;13.00
69545;BMP180;56766;52.260;20.746;2024-02-26T09:36:43;99645.00;;;13.00
69545;BMP180;56766;52.260;20.746;2024-02-26T09:39:10;99636.20;;;13.10
69545;BMP180;56766;52.260;20.746;2024-02-26T09:41:38;99638.20;;;13.10
69545;BMP180;56766;52.260;20.746;2024-02-26T09:44:05;99638.40;;;13.20
69545;BMP180;56766;52.260;20.746;2024-02-26T09:46:33;99641.60;;;13.30
69545;BMP180;56766;52.260;20.746;2024-02-26T09:49:00;99644.80;;;13.40
69545;BMP180;56766;52.260;20.746;2024-02-26T09:51:27;99643.60;;;13.38
69545;BMP180;56766;52.260;20.746;2024-02-26T09:53:59;99643.00;;;13.36
69545;BMP180;56766;52.260;20.746;2024-02-26T09:56:27;99644.20;;;13.40
69545;BMP180;56766;52.260;20.746;2024-02-26T09:58:57;99650.00;;;13.40
69545;BMP180;56766;52.260;20.746;2024-02-26T10:01:25;99653.40;;;13.42
69545;BMP180;56766;52.260;20.746;2024-02-26T10:03:56;99654.60;;;13.54
69545;BMP180;56766;52.260;20.746;2024-02-26T10:06:26;99651.60;;;13.68
69545;BMP180;56766;52.260;20.746;2024-02-26T10:09:09;99659.60;;;13.70
69545;BMP180;56766;52.260;20.746;2024-02-26T10:11:38;99656.60;;;13.80
69545;BMP180;56766;52.260;20.746;2024-02-26T10:14:07;99653.60;;;13.82
69545;BMP180;56766;52.260;20.746;2024-02-26T10:16:33;99661.00;;;13.90
69545;BMP180;56766;52.260;20.746;2024-02-26T10:19:02;99654.20;;;13.90
69545;BMP180;56766;52.260;20.746;2024-02-26T10:21:28;99658.20;;;13.90
69545;BMP180;56766;52.260;20.746;2024-02-26T10:23:56;99656.40;;;13.80
69545;BMP180;56766;52.260;20.746;2024-02-26T10:26:22;99652.40;;;13.80
69545;BMP180;56766;52.260;20.746;2024-02-26T10:28:49;99651.00;;;13.82
69545;BMP180;56766;52.260;20.746;2024-02-26T10:31:16;99656.40;;;13.90
69545;BMP180;56766;52.260;20.746;2024-02-26T10:33:43;99655.40;;;13.90
69545;BMP180;56766;52.260;20.746;2024-02-26T10:36:10;99654.80;;;14.00
69545;BMP180;56766;52.260;20.746;2024-02-26T10:38:38;99658.60;;;14.10
69545;BMP180;56766;52.260;20.746;2024-02-26T10:41:14;99656.60;;;14.20
69545;BMP180;56766;52.260;20.746;2024-02-26T10:43:43;99657.00;;;14.10
69545;BMP180;56766;52.260;20.746;2024-02-26T10:46:10;99654.60;;;14.00
69545;BMP180;56766;52.260;20.746;2024-02-26T10:48:38;99658.20;;;14.08
69545;BMP180;56766;52.260;20.746;2024-02-26T10:51:05;99655.00;;;14.24
69545;BMP180;56766;52.260;20.746;2024-02-26T10:53:34;99654.40;;;14.40
69545;BMP180;56766;52.260;20.746;2024-02-26T10:56:04;99655.40;;;14.40
69545;BMP180;56766;52.260;20.746;2024-02-26T10:58:32;99651.60;;;14.20
69545;BMP180;56766;52.260;20.746;2024-02-26T11:01:01;99653.60;;;14.22
69545;BMP180;56766;52.260;20.746;2024-02-26T11:03:29;99652.60;;;14.34
69545;BMP180;56766;52.260;20.746;2024-02-26T11:06:01;99655.40;;;14.40
69545;BMP180;56766;52.260;20.746;2024-02-26T11:08:31;99660.40;;;14.50
69545;BMP180;56766;52.260;20.746;2024-02-26T11:11:00;99658.60;;;14.40
69545;BMP180;56766;52.260;20.746;2024-02-26T11:13:31;99655.40;;;14.40
69545;BMP180;56766;52.260;20.746;2024-02-26T11:15:58;99654.20;;;14.40
69545;BMP180;56766;52.260;20.746;2024-02-26T11:18:27;99660.00;;;14.30
69545;BMP180;56766;52.260;20.746;2024-02-26T11:20:54;99657.00;;;14.20
69545;BMP180;56766;52.260;20.746;2024-02-26T11:23:23;99653.40;;;14.20
69545;BMP180;56766;52.260;20.746;2024-02-26T11:25:58;99650.00;;;14.20
69545;BMP180;56766;52.260;20.746;2024-02-26T11:28:29;99652.20;;;14.22
69545;BMP180;56766;52.260;20.746;2024-02-26T11:31:00;99656.20;;;14.10
69545;BMP180;56766;52.260;20.746;2024-02-26T11:33:28;99659.00;;;13.82
69545;BMP180;56766;52.260;20.746;2024-02-26T11:35:56;99662.40;;;13.60
69545;BMP180;56766;52.260;20.746;2024-02-26T11:38:26;99666.00;;;13.50
69545;BMP180;56766;52.260;20.746;2024-02-26T11:40:53;99661.60;;;13.50
69545;BMP180;56766;52.260;20.746;2024-02-26T11:43:50;99662.40;;;13.60
69545;BMP180;56766;52.260;20.746;2024-02-26T11:46:45;99665.20;;;13.40
69545;BMP180;56766;52.260;20.746;2024-02-26T11:51:56;99670.40;;;13.20
69545;BMP180;56766;52.260;20.746;2024-02-26T11:54:51;99672.80;;;13.20
69545;BMP180;56766;52.260;20.746;2024-02-26T11:57:40;99673.80;;;13.20
69545;BMP180;56766;52.260;20.746;2024-02-26T12:02:49;99678.40;;;13.60
69545;BMP180;56766;52.260;20.746;2024-02-26T12:05:22;99682.40;;;13.68
69545;BMP180;56766;52.260;20.746;2024-02-26T12:08:03;99680.20;;;13.60
69545;BMP180;56766;52.260;20.746;2024-02-26T12:10:37;99671.00;;;13.38
69545;BMP180;56766;52.260;20.746;2024-02-26T12:13:16;99677.40;;;13.30
69545;BMP180;56766;52.260;20.746;2024-02-26T12:15:55;99676.80;;;13.30
69545;BMP180;56766;52.260;20.746;2024-02-26T12:18:22;99677.80;;;13.20
69545;BMP180;56766;52.260;20.746;2024-02-26T12:21:03;99670.60;;;13.10
69545;BMP180;56766;52.260;20.746;2024-02-26T12:23:30;99667.60;;;13.12
69545;BMP180;56766;52.260;20.746;2024-02-26T12:26:01;99672.60;;;13.14
69545;BMP180;56766;52.260;20.746;2024-02-26T12:28:29;99674.00;;;13.20
69545;BMP180;56766;52.260;20.746;2024-02-26T12:30:58;99675.00;;;13.20
69545;BMP180;56766;52.260;20.746;2024-02-26T12:33:28;99667.80;;;13.10
69545;BMP180;56766;52.260;20.746;2024-02-26T12:35:55;99673.80;;;13.10
69545;BMP180;56766;52.260;20.746;2024-02-26T12:38:22;99674.80;;;13.10
69545;BMP180;56766;52.260;20.746;2024-02-26T12:40:49;99681.80;;;13.10
69545;BMP180;56766;52.260;20.746;2024-02-26T12:43:17;99670.80;;;13.10
69545;BMP180;56766;52.260;20.746;2024-02-26T12:45:44;99666.80;;;13.10
69545;BMP180;56766;52.260;20.746;2024-02-26T12:48:14;99660.40;;;13.10
69545;BMP180;56766;52.260;20.746;2024-02-26T12:50:46;99660.40;;;13.10
69545;BMP180;56766;52.260;20.746;2024-02-26T12:53:16;99659.40;;;13.10
69545;BMP180;56766;52.260;20.746;2024-02-26T12:55:43;99658.20;;;13.18
69545;BMP180;56766;52.260;20.746;2024-02-26T12:58:12;99665.00;;;13.18
69545;BMP180;56766;52.260;20.746;2024-02-26T13:00:40;99661.20;;;13.20
69545;BMP180;56766;52.260;20.746;2024-02-26T13:03:09;99666.80;;;13.20
69545;BMP180;56766;52.260;20.746;2024-02-26T13:05:37;99662.60;;;13.20
69545;BMP180;56766;52.260;20.746;2024-02-26T13:08:04;99667.60;;;13.22
69545;BMP180;56766;52.260;20.746;2024-02-26T13:10:31;99668.80;;;13.30
69545;BMP180;56766;52.260;20.746;2024-02-26T13:13:02;99671.40;;;13.26
69545;BMP180;56766;52.260;20.746;2024-02-26T13:15:29;99674.20;;;13.30
69545;BMP180;56766;52.260;20.746;2024-02-26T13:17:55;99666.20;;;13.30
69545;BMP180;56766;52.260;20.746;2024-02-26T13:20:30;99672.00;;;13.30
69545;BMP180;56766;52.260;20.746;2024-02-26T13:25:28;99663.40;;;13.30
69545;BMP180;56766;52.260;20.746;2024-02-26T13:30:32;99656.60;;;13.30
69545;BMP180;56766;52.260;20.746;2024-02-26T13:33:11;99657.00;;;13.30
69545;BMP180;56766;52.260;20.746;2024-02-26T13:35:39;99654.80;;;13.30
69545;BMP180;56766;52.260;20.746;2024-02-26T13:38:07;99657.00;;;13.30
69545;BMP180;56766;52.260;20.746;2024-02-26T13:40:35;99654.20;;;13.24
69545;BMP180;56766;52.260;20.746;2024-02-26T13:43:02;99655.40;;;13.20
69545;BMP180;56766;52.260;20.746;2024-02-26T13:45:29;99656.80;;;13.20
69545;BMP180;56766;52.260;20.746;2024-02-26T13:48:03;99656.20;;;13.20
69545;BMP180;56766;52.260;20.746;2024-02-26T13:50:30;99658.20;;;13.22
69545;BMP180;56766;52.260;20.746;2024-02-26T13:52:57;99650.40;;;13.28
69545;BMP180;56766;52.260;20.746;2024-02-26T13:55:28;99657.80;;;13.30
69545;BMP180;56766;52.260;20.746;2024-02-26T13:57:58;99654.80;;;13.22
69545;BMP180;56766;52.260;20.746;2024-02-26T14:00:29;99658.40;;;13.20
69545;BMP180;56766;52.260;20.746;2024-02-26T14:02:59;99655.80;;;13.20
69545;BMP180;56766;52.260;20.746;2024-02-26T14:05:26;99651.20;;;13.18
69545;BMP180;56766;52.260;20.746;2024-02-26T14:07:53;99646.80;;;13.10
69545;BMP180;56766;52.260;20.746;2024-02-26T14:10:21;99645.80;;;13.06
69545;BMP180;56766;52.260;20.746;2024-02-26T14:12:47;99647.80;;;13.00
69545;BMP180;56766;52.260;20.746;2024-02-26T14:15:14;99644.40;;;13.00
69545;BMP180;56766;52.260;20.746;2024-02-26T14:17:41;99647.60;;;13.00
69545;BMP180;56766;52.260;20.746;2024-02-26T14:20:10;99649.20;;;13.00